Rush, PA

2:59 PM EDT on September 20, 2014 (GMT -0400)
Graysdale | Change Station
CLOSE
Current Station
Personal Weather Station
Location: Port Matilda, PA
Elevation: 1350 ft
Nearby Weather Stations

Elev 1350 ft 40.81 °N, 77.94 °W | Updated 1 minute ago

Partly Cloudy
Partly Cloudy
77.0 °F
Feels Like 79 °F
N
0.0
Wind Variable Wind from West
Gusts 1.0 mph

Today
High -- | Low -- °F
--% Chance of Precip.
Yesterday
High -- | Low -- °F
Precip. -- in
6:57 AM 7:12 PM
Waning Crescent, 11% visible
Pressure 30.10 in
Visibility 10.0 miles
Clouds Scattered Clouds 3600 ft
Heat Index 79 °F
Dew Point 64 °F
Humidity 64%
Rainfall 0.00 in
Snow Depth Not available.
UV 5 out of 12
Pollen 4.20 out of 12
Air Quality Not available.
Flu Activity Not available.
METAR KUNV 201853Z 20010KT 10SM SCT036 23/15 A3010

More Conditions Fewer Conditions

Pressure 30.10 in
Visibility 10.0 miles
Clouds Scattered Clouds 3600 ft
Heat Index 79 °F
Dew Point 64 °F
Humidity 64%
Rainfall 0.00 in
Snow Depth Not available.
UV 5 out of 12
Pollen 4.20 out of 12
Air Quality Not available.
Flu Activity Not available.
METAR KUNV 201853Z 20010KT 10SM SCT036 23/15 A3010

More Conditions Fewer Conditions

10-Day Weather Forecast

Almanac

Astronomy

Sep. 20, 2014 Rise Set
Actual Time 6:57 AM EDT 7:12 PM EDT
Civil Twilight 6:30 AM EDT 7:39 PM EDT
Nautical Twilight 5:57 AM EDT 8:12 PM EDT
Astronomical Twilight 5:24 AM EDT 8:44 PM EDT
Moon 3:33 AM EDT 5:15 PM EDT
Length of Visible Light 13h 09m
Length of Day
12h 15m
Tomorrow will be 2m 43s shorter.
Waning Crescent, 11% of the Moon is Illuminated
Today
Waning Crescent
Sep 24
New
Oct 1
First Quarter
Oct 8
Full
Oct 15
Last Quarter

Today's Extremes

State Highs State Lows

Community

WunderPhotos

Upload Photos

1,754,923 photos uploaded!

WunderBlogs® & News

Nearby

Snow Depth

Station Depth Elevation
No new snow has been reported.

Earthquake Activity

City Distance Mag. Time & Date
No recent earthquake activity has been reported nearby.
Minimum magnitude displayed is 2.5.

Coastal Water Temperatures

Place Temperature
No Stations Reporting

Nearby Weather Stations